A few days of fog.

If you wish to post your complete observations, with or without comments, please use this forum.

A few days of fog.

Postby Richard Hunt » 2012 Oct 23, 19:59

Today is my fifth day of thick fog. The RH has stayed static all day at 100%, and the air temp has hardly moved more than two degrees the last few days.
Yesterdays min was 11.1c and the maximum was 12.0c. So far today it similar with the min at 11.5c and the max at 12.8c.

Currently at 1930Z it's the same as it was at this mornings observation and during the course of the day.

Day of month: 23
Time: 19:30 UTC
Wind: True direction = 050 degrees
Speed: 07 knots, with Gusts of maximum speed 13 knots
Visibility: 0250 meters
Weather: Strong Fog
Sky is obscured -- vertical visibility cannot be assessed
Temperature: 12 °C
Dewpoint: 12 °C
QNH (Sea-level pressure): 1027 mb
No significant changes expected in the near future

HSEA 231930Z 05007G13KT 0250 +FG VV/// 12/12 Q1027 NOSIG
COL Station: 25020.

Watson W-8681 AWS. Standard Stevenson Screen. Maximum and Minimum screen thermometers. Grass minimum thermometer.
5" Copper standard rain gauge. Roof mounted annemometer.
Richard Hunt
 
Posts: 374
Joined: 2012 Jan 27, 19:23
Location: Hornsea, East Yorkshire. 10m AMSL

Return to Current Conditions



Who is online

Users browsing this forum: No registered users and 2 guests

cron